createdAt,value
2024-04-11T00:01:02.734Z,97780.03
2024-04-11T00:03:32.563Z,97784.94
2024-04-11T00:05:59.748Z,97775.72
2024-04-11T00:08:29.663Z,97779.03
2024-04-11T00:10:57.328Z,97781.38
2024-04-11T00:13:27.299Z,97770.09
2024-04-11T00:15:56.708Z,97771.56
2024-04-11T00:18:29.685Z,97770.28
2024-04-11T00:20:57.215Z,97772.53
2024-04-11T00:23:27.369Z,97782.78
2024-04-11T00:25:56.469Z,97771.91
2024-04-11T00:28:26.851Z,97768.56
2024-04-11T00:30:54.206Z,97768.41
2024-04-11T00:33:24.413Z,97765.69
2024-04-11T00:35:54.332Z,97765.53
2024-04-11T00:38:24.964Z,97771.53
2024-04-11T00:40:55.518Z,97771.94
2024-04-11T00:43:25.673Z,97773.88
2024-04-11T00:45:53.503Z,97772.72
2024-04-11T00:48:23.802Z,97767.53
2024-04-11T00:50:54.439Z,97772.06
2024-04-11T00:53:25.849Z,97759.75
2024-04-11T00:55:53.215Z,97761.28
2024-04-11T00:58:23.506Z,97762.28
2024-04-11T01:00:50.596Z,97755.41
2024-04-11T01:03:20.429Z,97753.66
2024-04-11T01:05:48.635Z,97756.72
2024-04-11T01:08:21.044Z,97754.28
2024-04-11T01:10:48.174Z,97754.34
2024-04-11T01:13:19.133Z,97750.34
2024-04-11T01:15:48.462Z,97749.28
2024-04-11T01:18:20.967Z,97751.66
2024-04-11T01:20:48.156Z,97745.47
2024-04-11T01:23:20.754Z,97737.66
2024-04-11T01:25:50.107Z,97736.44
2024-04-11T01:28:19.868Z,97734.63
2024-04-11T01:30:47.012Z,97746.59
2024-04-11T01:33:16.922Z,97746.69
2024-04-11T01:35:44.239Z,97738.06
2024-04-11T01:38:14.276Z,97742.22
2024-04-11T01:40:47.975Z,97740.38
2024-04-11T01:43:17.887Z,97739.69
2024-04-11T01:45:45.036Z,97730.94
2024-04-11T01:48:15.333Z,97737.59
2024-04-11T01:50:43.198Z,97735.19
2024-04-11T01:53:15.621Z,97734.88
2024-04-11T01:55:49.339Z,97734.03
2024-04-11T01:58:19.894Z,97731.84
2024-04-11T02:00:47.386Z,97738.09
2024-04-11T02:03:18.314Z,97744.66
2024-04-11T02:05:45.963Z,97738.69
2024-04-11T02:08:17.387Z,97733.03
2024-04-11T02:10:47.104Z,97731.16
2024-04-11T02:13:17.325Z,97735.41
2024-04-11T02:15:44.467Z,97741.63
2024-04-11T02:18:14.693Z,97741.94
2024-04-11T02:20:43.379Z,97738.84
2024-04-11T02:23:13.164Z,97732.59
2024-04-11T02:25:40.253Z,97736.16
2024-04-11T02:28:12.573Z,97736.69
2024-04-11T02:30:39.817Z,97742.88
2024-04-11T02:33:12.252Z,97739.78
2024-04-11T02:35:39.917Z,97743.38
2024-04-11T02:38:10.749Z,97734.50
2024-04-11T02:40:38.615Z,97736.41
2024-04-11T02:43:09.560Z,97733.31
2024-04-11T02:45:39.864Z,97740.03
2024-04-11T02:48:10.972Z,97742.75
2024-04-11T02:50:38.992Z,97734.28
2024-04-11T02:53:11.235Z,97734.81
2024-04-11T02:55:39.386Z,97740.47
2024-04-11T02:58:09.124Z,97739.19
2024-04-11T03:00:36.233Z,97746.25
2024-04-11T03:03:09.204Z,97749.00
2024-04-11T03:05:37.562Z,97751.72
2024-04-11T03:08:08.110Z,97745.75
2024-04-11T03:10:35.511Z,97746.25
2024-04-11T03:13:05.875Z,97746.97
2024-04-11T03:15:32.966Z,97752.66
2024-04-11T03:18:02.810Z,97753.53
2024-04-11T03:20:32.613Z,97763.66
2024-04-11T03:23:02.367Z,97762.41
2024-04-11T03:25:32.337Z,97754.84
2024-04-11T03:28:02.871Z,97756.28
2024-04-11T03:30:31.158Z,97752.94
2024-04-11T03:33:02.719Z,97756.22
2024-04-11T03:35:34.083Z,97749.56
2024-04-11T03:38:04.070Z,97751.66
2024-04-11T03:40:31.162Z,97756.28
2024-04-11T03:43:00.997Z,97745.59
2024-04-11T03:45:32.537Z,97747.25
2024-04-11T03:48:02.436Z,97748.25
2024-04-11T03:50:36.997Z,97748.88
2024-04-11T03:53:06.860Z,97750.53
2024-04-11T03:55:47.760Z,97750.69
2024-04-11T03:58:17.902Z,97756.06
2024-04-11T04:00:48.771Z,97763.28
2024-04-11T04:03:16.150Z,97760.13
2024-04-11T04:05:48.683Z,97763.63
2024-04-11T04:08:15.844Z,97766.13
2024-04-11T04:10:46.378Z,97759.66
2024-04-11T04:13:13.480Z,97766.44
2024-04-11T04:15:43.272Z,97768.81
2024-04-11T04:18:13.538Z,97768.06
2024-04-11T04:20:45.182Z,97770.38
2024-04-11T04:23:15.013Z,97776.38
2024-04-11T04:25:44.932Z,97770.81
2024-04-11T04:28:12.028Z,97769.97
2024-04-11T04:30:46.228Z,97781.63
2024-04-11T04:33:13.615Z,97778.53
2024-04-11T04:35:43.501Z,97780.44
2024-04-11T04:38:12.041Z,97776.91
2024-04-11T04:40:44.448Z,97781.63
2024-04-11T04:43:11.619Z,97772.28
2024-04-11T04:45:46.224Z,97784.94
2024-04-11T04:48:13.717Z,97793.19
2024-04-11T04:50:43.682Z,97788.13
2024-04-11T04:53:10.913Z,97777.16
2024-04-11T04:55:40.652Z,97786.91
2024-04-11T04:58:10.384Z,97791.22
2024-04-11T05:00:41.242Z,97792.91
2024-04-11T05:03:10.250Z,97797.28
2024-04-11T05:05:40.505Z,97793.59
2024-04-11T05:08:08.887Z,97797.66
2024-04-11T05:10:39.194Z,97788.91
2024-04-11T05:13:11.048Z,97787.66
2024-04-11T05:15:45.843Z,97785.25
2024-04-11T05:18:14.451Z,97794.63
2024-04-11T05:20:44.398Z,97796.91
2024-04-11T05:23:11.484Z,97798.13
2024-04-11T05:25:41.234Z,97801.22
2024-04-11T05:28:09.218Z,97817.38
2024-04-11T05:30:42.065Z,97803.50
2024-04-11T05:33:15.179Z,97811.06
2024-04-11T05:35:42.986Z,97805.84
2024-04-11T05:38:12.765Z,97813.31
2024-04-11T05:40:40.229Z,97819.00
2024-04-11T05:43:15.394Z,97816.97
2024-04-11T05:45:45.201Z,97812.13
2024-04-11T05:48:18.396Z,97816.53
2024-04-11T05:50:45.802Z,97825.44
2024-04-11T05:53:15.871Z,97824.06
2024-04-11T05:55:43.201Z,97825.41
2024-04-11T05:58:13.279Z,97828.72
2024-04-11T06:00:40.604Z,97820.34
2024-04-11T06:03:14.638Z,97815.78
2024-04-11T06:05:48.345Z,97821.00
2024-04-11T06:08:18.246Z,97817.25
2024-04-11T06:10:45.657Z,97827.78
2024-04-11T06:13:15.695Z,97818.88
2024-04-11T06:15:43.582Z,97817.25
2024-04-11T06:18:16.392Z,97823.16
2024-04-11T06:20:46.498Z,97815.75
2024-04-11T06:23:17.551Z,97818.41
2024-04-11T06:25:45.582Z,97822.69
2024-04-11T06:28:15.763Z,97825.91
2024-04-11T06:30:43.094Z,97830.50
2024-04-11T06:33:14.738Z,97824.63
2024-04-11T06:35:41.983Z,97835.03
2024-04-11T06:38:14.373Z,97834.41
2024-04-11T06:40:41.971Z,97835.94
2024-04-11T06:43:14.893Z,97837.75
2024-04-11T06:45:42.094Z,97835.91
2024-04-11T06:48:12.832Z,97838.94
2024-04-11T06:50:40.406Z,97838.72
2024-04-11T06:53:10.532Z,97840.38
2024-04-11T06:55:40.272Z,97841.44
2024-04-11T06:58:11.452Z,97838.72
2024-04-11T07:00:38.592Z,97841.81
2024-04-11T07:03:15.463Z,97834.47
2024-04-11T07:05:51.230Z,97836.94
2024-04-11T07:08:21.636Z,97845.59
2024-04-11T07:10:54.554Z,97847.63
2024-04-11T07:13:24.813Z,97845.78
2024-04-11T07:15:53.655Z,97841.53
2024-04-11T07:18:23.845Z,97839.84
2024-04-11T07:20:52.028Z,97845.47
2024-04-11T07:23:24.111Z,97844.09
2024-04-11T07:25:53.837Z,97844.19
2024-04-11T07:28:25.553Z,97843.09
2024-04-11T07:30:52.671Z,97846.19
2024-04-11T07:33:22.487Z,97838.94
2024-04-11T07:35:50.359Z,97840.63
2024-04-11T07:38:20.371Z,97837.97
2024-04-11T07:40:55.770Z,97843.34
2024-04-11T07:43:32.153Z,97841.84
2024-04-11T07:46:18.290Z,97841.34
2024-04-11T07:48:53.152Z,97838.84
2024-04-11T07:51:20.922Z,97841.72
2024-04-11T07:53:51.158Z,97845.75
2024-04-11T07:56:20.575Z,97841.34
2024-04-11T07:58:57.219Z,97850.19
2024-04-11T08:01:32.299Z,97857.34
2024-04-11T08:04:02.586Z,97855.50
2024-04-11T08:06:29.862Z,97853.88
2024-04-11T08:09:00.746Z,97862.50
2024-04-11T08:11:30.681Z,97863.56
2024-04-11T08:14:05.261Z,97868.72
2024-04-11T08:16:34.070Z,97868.47
2024-04-11T08:19:04.518Z,97862.06
2024-04-11T08:21:31.949Z,97865.25
2024-04-11T08:24:02.777Z,97868.66
2024-04-11T08:26:30.695Z,97869.50
2024-04-11T08:29:03.204Z,97865.13
2024-04-11T08:31:31.525Z,97865.66
2024-04-11T08:34:01.675Z,97872.09
2024-04-11T08:36:30.422Z,97865.06
2024-04-11T08:39:00.872Z,97866.78
2024-04-11T08:41:28.003Z,97869.59
2024-04-11T08:43:58.465Z,97870.66
2024-04-11T08:46:29.080Z,97876.50
2024-04-11T08:48:59.043Z,97865.53
2024-04-11T08:51:26.232Z,97869.81
2024-04-11T08:54:03.571Z,97868.53
2024-04-11T08:56:33.065Z,97868.59
2024-04-11T08:59:03.560Z,97866.19
2024-04-11T09:01:33.832Z,97865.75
2024-04-11T09:04:04.269Z,97868.03
2024-04-11T09:06:34.202Z,97865.91
2024-04-11T09:09:11.293Z,97866.19
2024-04-11T09:11:43.895Z,97863.41
2024-04-11T09:14:15.784Z,97871.06
2024-04-11T09:16:45.489Z,97861.25
2024-04-11T09:19:15.399Z,97872.75
2024-04-11T09:21:45.249Z,97860.81
2024-04-11T09:24:18.302Z,97868.25
2024-04-11T09:26:46.121Z,97859.78
2024-04-11T09:29:15.896Z,97864.09
2024-04-11T09:31:45.809Z,97861.16
2024-04-11T09:34:15.663Z,97854.38
2024-04-11T09:36:48.589Z,97853.00
2024-04-11T09:39:43.073Z,97854.28
2024-04-11T09:42:13.331Z,97854.56
2024-04-11T09:44:48.401Z,97855.19
2024-04-11T09:47:21.392Z,97848.53
2024-04-11T09:50:01.020Z,97851.47
2024-04-11T09:52:29.423Z,97854.09
2024-04-11T09:55:03.993Z,97839.09
2024-04-11T09:57:35.368Z,97846.13
2024-04-11T10:00:10.747Z,97833.41
2024-04-11T10:02:41.738Z,97843.84
2024-04-11T10:05:17.402Z,97842.31
2024-04-11T10:07:46.929Z,97831.56
2024-04-11T10:10:27.218Z,97826.03
2024-04-11T10:12:55.973Z,97838.28
2024-04-11T10:15:27.523Z,97840.03
2024-04-11T10:18:10.354Z,97831.44
2024-04-11T10:20:44.607Z,97833.47
2024-04-11T10:23:17.446Z,97835.06
2024-04-11T10:25:51.934Z,97828.88
2024-04-11T10:28:19.874Z,97828.75
2024-04-11T10:30:52.734Z,97833.47
2024-04-11T10:33:30.985Z,97833.09
2024-04-11T10:36:08.341Z,97832.53
2024-04-11T10:38:35.581Z,97826.91
2024-04-11T10:41:06.002Z,97823.59
2024-04-11T10:43:33.816Z,97817.34
2024-04-11T10:46:06.532Z,97817.94
2024-04-11T10:48:41.741Z,97811.88
2024-04-11T10:51:12.366Z,97815.34
2024-04-11T10:53:44.120Z,97816.66
2024-04-11T10:56:24.379Z,97817.81
2024-04-11T10:58:54.875Z,97813.81
2024-04-11T11:01:27.923Z,97818.75
2024-04-11T11:03:59.772Z,97810.34
2024-04-11T11:06:36.515Z,97812.25
2024-04-11T11:09:12.544Z,97803.84
2024-04-11T11:11:45.102Z,97802.69
2024-04-11T11:14:18.840Z,97794.44
2024-04-11T11:16:52.171Z,97794.28
2024-04-11T11:19:24.008Z,97796.47
2024-04-11T11:22:00.848Z,97786.59
2024-04-11T11:24:29.724Z,97783.69
2024-04-11T11:27:00.677Z,97780.44
2024-04-11T11:29:28.588Z,97774.34
2024-04-11T11:32:03.213Z,97776.44
2024-04-11T11:34:37.608Z,97777.88
2024-04-11T11:37:14.182Z,97774.84
2024-04-11T11:39:44.379Z,97768.38
2024-04-11T11:42:24.489Z,97768.81
2024-04-11T11:45:07.367Z,97768.81
2024-04-11T11:47:38.902Z,97765.81
2024-04-11T11:50:10.849Z,97769.59
2024-04-11T11:52:45.515Z,97755.31
2024-04-11T11:55:18.392Z,97754.25
2024-04-11T11:57:58.554Z,97749.78
2024-04-11T12:00:34.064Z,97712.00
2024-04-11T12:03:21.058Z,97751.28
2024-04-11T12:05:55.018Z,97751.31
2024-04-11T12:08:25.743Z,97759.94
2024-04-11T12:11:22.861Z,97755.31
2024-04-11T12:14:04.400Z,97747.53
2024-04-11T12:16:41.122Z,97748.00
2024-04-11T12:19:12.950Z,97753.22
2024-04-11T12:21:46.657Z,97735.22
2024-04-11T12:24:16.838Z,97731.00
2024-04-11T12:26:44.499Z,97735.13
2024-04-11T12:29:15.185Z,97738.53
2024-04-11T12:31:43.934Z,97730.13
2024-04-11T12:34:16.307Z,97739.28
2024-04-11T12:36:58.658Z,97728.19
2024-04-11T12:39:34.877Z,97733.72
2024-04-11T12:42:02.928Z,97730.22
2024-04-11T12:44:38.526Z,97726.50
2024-04-11T12:47:15.740Z,97719.38
2024-04-11T12:49:49.116Z,97715.94
2024-04-11T12:52:24.506Z,97718.94
2024-04-11T12:55:00.640Z,97717.78
2024-04-11T12:57:30.301Z,97720.25
2024-04-11T13:00:09.562Z,97711.81
2024-04-11T13:02:41.219Z,97714.28
2024-04-11T13:05:15.716Z,97714.78
2024-04-11T13:07:47.688Z,97708.13
2024-04-11T13:10:17.824Z,97715.06
2024-04-11T13:12:46.577Z,97712.00
2024-04-11T13:15:21.544Z,97712.91
2024-04-11T13:17:54.542Z,97707.75
2024-04-11T13:20:29.630Z,97707.56
2024-04-11T13:23:11.352Z,97707.53
2024-04-11T13:25:43.973Z,97705.91
2024-04-11T13:28:14.173Z,97705.94
2024-04-11T13:30:48.314Z,97700.81
2024-04-11T13:33:16.914Z,97705.53
2024-04-11T13:35:53.269Z,97698.91
2024-04-11T13:38:25.196Z,97704.66
2024-04-11T13:41:16.725Z,97695.53
2024-04-11T13:43:44.974Z,97696.94
2024-04-11T13:46:16.349Z,97695.31
2024-04-11T13:48:49.571Z,97686.88
2024-04-11T13:51:25.415Z,97691.97
2024-04-11T13:53:57.126Z,97690.81
2024-04-11T13:56:30.975Z,97691.03
2024-04-11T13:58:59.993Z,97686.69
2024-04-11T14:01:32.993Z,97699.81
2024-04-11T14:04:01.601Z,97688.13
2024-04-11T14:06:40.819Z,97689.69
2024-04-11T14:09:11.753Z,97695.19
2024-04-11T14:11:43.921Z,97697.09
2024-04-11T14:14:13.090Z,97693.59
2024-04-11T14:16:59.079Z,97695.78
2024-04-11T14:19:37.192Z,97687.38
2024-04-11T14:22:26.667Z,97681.34
2024-04-11T14:25:22.572Z,97686.31
2024-04-11T14:27:50.083Z,97676.56
2024-04-11T14:30:26.645Z,97677.72
2024-04-11T14:33:14.362Z,97676.09
2024-04-11T14:36:08.805Z,97681.31
2024-04-11T14:38:38.673Z,97669.88
2024-04-11T14:41:09.561Z,97682.22
2024-04-11T14:43:41.320Z,97675.94
2024-04-11T14:46:14.571Z,97677.22
2024-04-11T14:48:44.530Z,97670.81
2024-04-11T14:51:17.658Z,97675.47
2024-04-11T14:53:48.731Z,97674.03
2024-04-11T14:56:40.435Z,97672.44
2024-04-11T14:59:11.462Z,97671.31
2024-04-11T15:01:44.575Z,97670.47
2024-04-11T15:04:22.477Z,97671.31
2024-04-11T15:06:52.883Z,97667.78
2024-04-11T15:09:36.213Z,97665.44
2024-04-11T15:12:14.577Z,97668.84
2024-04-11T15:14:46.720Z,97659.84
2024-04-11T15:17:21.359Z,97669.25
2024-04-11T15:19:53.588Z,97671.19
2024-04-11T15:22:27.442Z,97668.44
2024-04-11T15:25:01.557Z,97668.31
2024-04-11T15:27:41.216Z,97669.25
2024-04-11T15:30:11.818Z,97662.03
2024-04-11T15:32:39.724Z,97661.88
2024-04-11T15:35:12.985Z,97662.72
2024-04-11T15:38:14.905Z,97664.56
2024-04-11T15:40:51.986Z,97668.13
2024-04-11T15:43:28.305Z,97665.41
2024-04-11T15:46:09.088Z,97664.31
2024-04-11T15:48:38.021Z,97664.16
2024-04-11T15:51:08.795Z,97664.56
2024-04-11T15:53:38.536Z,97668.06
2024-04-11T15:56:15.367Z,97673.00
2024-04-11T15:58:56.509Z,97670.50
2024-04-11T16:01:32.771Z,97674.69
2024-04-11T16:04:00.461Z,97671.63
2024-04-11T16:06:33.659Z,97672.00
2024-04-11T16:09:00.879Z,97670.69
2024-04-11T16:11:32.129Z,97674.84
2024-04-11T16:14:05.717Z,97681.03
2024-04-11T16:16:41.450Z,97680.13
2024-04-11T16:19:14.571Z,97675.22
2024-04-11T16:21:45.815Z,97682.72
2024-04-11T16:24:14.817Z,97683.81
2024-04-11T16:26:44.575Z,97681.91
2024-04-11T16:29:20.975Z,97686.34
2024-04-11T16:31:53.068Z,97686.50
2024-04-11T16:34:22.263Z,97682.19
2024-04-11T16:36:54.827Z,97688.34
2024-04-11T16:39:40.956Z,97685.78
2024-04-11T16:42:24.346Z,97684.88
2024-04-11T16:45:21.176Z,97681.13
2024-04-11T16:47:51.920Z,97674.69
2024-04-11T16:50:21.008Z,97686.78
2024-04-11T16:52:55.272Z,97687.06
2024-04-11T16:55:28.782Z,97692.25
2024-04-11T16:58:14.063Z,97692.53
2024-04-11T17:00:44.854Z,97693.75
2024-04-11T17:03:20.485Z,97689.13
2024-04-11T17:05:56.559Z,97692.03
2024-04-11T17:08:27.695Z,97682.97
2024-04-11T17:10:57.557Z,97695.09
2024-04-11T17:13:34.093Z,97687.34
2024-04-11T17:16:17.602Z,97692.81
2024-04-11T17:18:58.881Z,97689.56
2024-04-11T17:21:30.740Z,97691.69
2024-04-11T17:24:06.273Z,97692.22
2024-04-11T17:26:34.151Z,97701.91
2024-04-11T17:29:06.226Z,97705.19
2024-04-11T17:31:49.498Z,97700.97
2024-04-11T17:34:20.352Z,97701.28
2024-04-11T17:36:47.445Z,97706.59
2024-04-11T17:39:45.363Z,97712.25
2024-04-11T17:42:15.626Z,97714.00
2024-04-11T17:44:55.141Z,97717.03
2024-04-11T17:47:31.760Z,97721.34
2024-04-11T17:50:03.006Z,97723.44
2024-04-11T17:52:46.442Z,97721.78
2024-04-11T17:55:29.519Z,97734.78
2024-04-11T17:58:01.825Z,97733.66
2024-04-11T18:00:33.167Z,97735.88
2024-04-11T18:03:08.475Z,97740.06
2024-04-11T18:05:36.111Z,97740.06
2024-04-11T18:08:09.169Z,97748.78
2024-04-11T18:10:39.395Z,97748.88
2024-04-11T18:13:09.883Z,97758.50
2024-04-11T18:15:41.724Z,97761.97
2024-04-11T18:18:18.708Z,97764.19
2024-04-11T18:20:47.009Z,97767.59
2024-04-11T18:23:21.290Z,97771.47
2024-04-11T18:25:49.373Z,97763.59
2024-04-11T18:28:25.178Z,97776.09
2024-04-11T18:30:55.340Z,97778.97
2024-04-11T18:33:31.131Z,97774.50
2024-04-11T18:35:59.626Z,97779.28
2024-04-11T18:38:35.090Z,97781.56
2024-04-11T18:41:20.163Z,97778.50
2024-04-11T18:43:51.838Z,97774.13
2024-04-11T18:46:19.634Z,97787.03
2024-04-11T18:49:00.239Z,97791.06
2024-04-11T18:51:40.176Z,97786.09
2024-04-11T18:54:14.405Z,97780.06
2024-04-11T18:56:49.041Z,97791.53
2024-04-11T18:59:22.993Z,97786.25
2024-04-11T19:01:50.579Z,97790.13
2024-04-11T19:04:35.400Z,97797.34
2024-04-11T19:07:08.771Z,97792.41
2024-04-11T19:09:54.280Z,97795.81
2024-04-11T19:12:24.903Z,97792.00
2024-04-11T19:14:58.051Z,97802.72
2024-04-11T19:17:27.238Z,97802.94
2024-04-11T19:20:01.843Z,97804.19
2024-04-11T19:22:32.167Z,97806.63
2024-04-11T19:25:13.393Z,97807.03
2024-04-11T19:27:46.455Z,97809.94
2024-04-11T19:30:17.262Z,97818.38
2024-04-11T19:32:46.196Z,97811.03
2024-04-11T19:35:23.051Z,97813.09
2024-04-11T19:38:01.294Z,97814.84
2024-04-11T19:40:34.261Z,97814.69
2024-04-11T19:43:04.391Z,97814.91
2024-04-11T19:45:32.528Z,97815.63
2024-04-11T19:48:08.128Z,97814.22
2024-04-11T19:50:40.552Z,97815.53
2024-04-11T19:53:14.530Z,97810.59
2024-04-11T19:55:54.336Z,97819.13
2024-04-11T19:58:25.252Z,97820.97
2024-04-11T20:00:52.926Z,97820.41
2024-04-11T20:03:30.821Z,97824.31
2024-04-11T20:06:09.038Z,97826.63
2024-04-11T20:08:40.304Z,97832.06
2024-04-11T20:11:12.352Z,97836.00
2024-04-11T20:13:58.294Z,97828.22
2024-04-11T20:16:28.114Z,97831.84
2024-04-11T20:18:56.809Z,97836.59
2024-04-11T20:21:32.678Z,97836.25
2024-04-11T20:24:02.563Z,97843.25
2024-04-11T20:26:33.078Z,97847.94
2024-04-11T20:29:04.999Z,97841.47
2024-04-11T20:31:35.555Z,97844.66
2024-04-11T20:34:07.127Z,97847.75
2024-04-11T20:36:50.856Z,97839.97
2024-04-11T20:39:36.355Z,97851.19
2024-04-11T20:42:14.132Z,97845.88
2024-04-11T20:44:55.817Z,97847.19
2024-04-11T20:47:35.598Z,97841.75
2024-04-11T20:50:21.386Z,97850.19
2024-04-11T20:53:09.386Z,97844.41
2024-04-11T20:56:00.152Z,97849.88
2024-04-11T20:58:45.671Z,97847.38
2024-04-11T21:01:31.138Z,97845.06
2024-04-11T21:04:16.603Z,97847.78
2024-04-11T21:07:02.009Z,97844.38
2024-04-11T21:09:50.694Z,97849.28
2024-04-11T21:12:36.115Z,97838.41
2024-04-11T21:15:22.126Z,97847.97
2024-04-11T21:18:07.633Z,97859.41
2024-04-11T21:20:53.413Z,97847.44
2024-04-11T21:23:38.854Z,97852.41
2024-04-11T21:26:30.374Z,97855.03
2024-04-11T21:29:15.803Z,97848.94
2024-04-11T21:32:01.224Z,97856.09
2024-04-11T21:34:31.350Z,97860.13
2024-04-11T21:37:04.020Z,97862.97
2024-04-11T21:39:36.404Z,97856.94
2024-04-11T21:42:09.156Z,97855.34
2024-04-11T21:44:41.282Z,97861.25
2024-04-11T21:47:13.902Z,97859.59
2024-04-11T21:49:41.040Z,97852.09
2024-04-11T21:52:11.845Z,97859.16
2024-04-11T21:54:44.871Z,97858.25
2024-04-11T21:57:24.285Z,97854.59
2024-04-11T21:59:54.213Z,97859.09
2024-04-11T22:02:25.157Z,97854.16
2024-04-11T22:04:52.488Z,97851.44
2024-04-11T22:07:23.483Z,97861.34
2024-04-11T22:09:51.091Z,97857.19
2024-04-11T22:12:29.959Z,97853.78
2024-04-11T22:14:59.452Z,97851.44
2024-04-11T22:17:34.796Z,97861.31
2024-04-11T22:20:07.846Z,97847.31
2024-04-11T22:22:46.844Z,97857.97
2024-04-11T22:25:16.356Z,97859.44
2024-04-11T22:27:51.385Z,97856.47
2024-04-11T22:30:26.902Z,97868.44
2024-04-11T22:33:03.067Z,97865.38
2024-04-11T22:35:30.600Z,97862.28
2024-04-11T22:38:00.466Z,97868.72
2024-04-11T22:40:27.613Z,97872.59
2024-04-11T22:43:00.033Z,97865.44
2024-04-11T22:45:29.919Z,97873.03
2024-04-11T22:47:59.703Z,97871.84
2024-04-11T22:50:26.927Z,97872.88
2024-04-11T22:52:56.619Z,97872.16
2024-04-11T22:55:24.348Z,97871.56
2024-04-11T22:57:59.896Z,97867.09
2024-04-11T23:00:31.288Z,97872.19
2024-04-11T23:03:10.397Z,97873.91
2024-04-11T23:05:39.160Z,97866.06
2024-04-11T23:08:11.770Z,97872.09
2024-04-11T23:10:39.653Z,97870.38
2024-04-11T23:13:10.736Z,97874.53
2024-04-11T23:15:49.199Z,97871.28
2024-04-11T23:18:20.657Z,97863.59
2024-04-11T23:20:48.793Z,97863.44
2024-04-11T23:23:21.691Z,97865.28
2024-04-11T23:25:55.087Z,97867.28
2024-04-11T23:28:28.180Z,97860.38
2024-04-11T23:30:58.253Z,97858.59
2024-04-11T23:33:30.765Z,97860.69
2024-04-11T23:36:05.583Z,97866.09
2024-04-11T23:38:36.909Z,97862.88
2024-04-11T23:41:08.505Z,97862.84
2024-04-11T23:43:49.427Z,97857.06
2024-04-11T23:46:28.040Z,97862.53
2024-04-11T23:48:57.980Z,97857.63
2024-04-11T23:51:25.308Z,97858.00
2024-04-11T23:53:57.150Z,97859.47
2024-04-11T23:56:36.674Z,97863.09
2024-04-11T23:59:13.497Z,97865.03
